Time;durP1;ratioP1;P1;durP2;ratioP2;P2;SDS_P1;SDS_P2;PMS_P1;PMS_P2;Temp;Humidity;BMP_temperature;BMP_pressure;BME280_temperature;BME280_humidity;BME280_pressure;Samples;Min_cycle;Max_cycle;Signal;HPM_P1;HPM_P2
2022/07/08 00:00:46;;;;;;;;;4.67;3.00;;;;;18.72;88.23;102808.84;5063161;28;53514;-75
2022/07/08 00:03:11;;;;;;;;;4.67;3.00;;;;;18.70;88.27;102810.59;5067842;28;45666;-76
2022/07/08 00:05:36;;;;;;;;;3.67;3.33;;;;;18.69;88.46;102804.31;5065542;28;70611;-75
2022/07/08 00:08:02;;;;;;;;;4.00;2.33;;;;;18.66;88.47;102812.31;5068517;28;45474;-76
2022/07/08 00:10:28;;;;;;;;;4.00;3.00;;;;;18.63;88.48;102806.91;5068176;28;45356;-76
2022/07/08 00:12:53;;;;;;;;;7.00;3.00;;;;;18.65;88.47;102815.00;5063486;28;57209;-75
2022/07/08 00:15:21;;;;;;;;;4.00;3.00;;;;;18.64;88.40;102807.81;5068927;28;46413;-75
2022/07/08 00:17:46;;;;;;;;;5.67;3.00;;;;;18.63;88.43;102808.69;5068550;28;45505;-75
2022/07/08 00:20:12;;;;;;;;;6.00;3.00;;;;;18.59;88.29;102819.41;5067268;28;45224;-76
2022/07/08 00:22:37;;;;;;;;;3.00;3.00;;;;;18.57;88.50;102810.44;5065824;28;45402;-76
2022/07/08 00:25:03;;;;;;;;;6.00;5.00;;;;;18.53;88.76;102805.03;5070480;28;46620;-76
2022/07/08 00:27:29;;;;;;;;;3.67;3.00;;;;;18.52;88.57;102812.16;5068171;28;45561;-76
2022/07/08 00:29:54;;;;;;;;;4.67;3.00;;;;;18.50;88.60;102813.94;5065076;28;65228;-76
2022/07/08 00:32:19;;;;;;;;;4.33;3.00;;;;;18.47;88.95;102808.56;5063161;28;52290;-75
2022/07/08 00:34:44;;;;;;;;;6.33;3.00;;;;;18.41;88.82;102803.16;5067583;28;65388;-76
2022/07/08 00:37:10;;;;;;;;;2.00;2.00;;;;;18.41;89.07;102797.78;5067090;28;67387;-75
2022/07/08 00:39:35;;;;;;;;;4.00;3.00;;;;;18.38;88.73;102796.88;5073918;28;45363;-76
2022/07/08 00:42:01;;;;;;;;;3.00;2.00;;;;;18.38;89.16;102800.47;5065881;28;62608;-75
2022/07/08 00:44:26;;;;;;;;;5.00;3.67;;;;;18.35;89.27;102797.75;5066937;28;46708;-76
2022/07/08 00:46:52;;;;;;;;;2.00;2.00;;;;;18.33;89.38;102799.50;5068392;28;66096;-75
2022/07/08 00:49:17;;;;;;;;;4.33;3.00;;;;;18.28;89.29;102802.13;5070295;28;45451;-75
2022/07/08 00:51:44;;;;;;;;;2.67;2.67;;;;;18.26;89.55;102806.56;5069311;28;45501;-75
2022/07/08 00:54:12;;;;;;;;;5.33;2.00;;;;;18.23;89.61;102802.97;5048701;28;46443;-76
2022/07/08 00:56:38;;;;;;;;;5.00;3.00;;;;;18.21;89.59;102807.38;5066709;28;45462;-76
2022/07/08 00:59:04;;;;;;;;;3.67;3.00;;;;;18.17;89.65;102809.16;5066452;28;45646;-76
2022/07/08 01:01:29;;;;;;;;;5.67;3.00;;;;;18.14;89.76;102819.78;5068465;28;45245;-75
2022/07/08 01:03:55;;;;;;;;;4.33;2.00;;;;;18.09;89.85;102813.50;5067998;28;65203;-75
2022/07/08 01:06:20;;;;;;;;;2.33;2.00;;;;;18.03;89.68;102813.44;5066917;28;45411;-76
2022/07/08 01:08:45;;;;;;;;;1.00;0.00;;;;;18.03;89.63;102808.97;5066764;28;59359;-76
2022/07/08 01:11:12;;;;;;;;;3.33;2.00;;;;;18.04;89.64;102817.88;5045153;28;45589;-76
2022/07/08 01:13:38;;;;;;;;;5.00;3.00;;;;;18.02;89.74;102822.34;5067743;28;47331;-75
2022/07/08 01:16:03;;;;;;;;;3.33;3.00;;;;;17.97;89.40;102824.94;5061866;28;67950;-76
2022/07/08 01:18:30;;;;;;;;;2.00;2.00;;;;;17.95;89.53;102828.47;5065132;28;45451;-76
2022/07/08 01:20:56;;;;;;;;;2.00;2.00;;;;;17.90;89.43;102831.09;5073826;28;45506;-75
2022/07/08 01:23:22;;;;;;;;;3.67;2.00;;;;;17.90;89.30;102840.91;5069630;28;47359;-76
2022/07/08 01:25:48;;;;;;;;;1.00;1.00;;;;;17.87;88.82;102833.72;5062159;28;45295;-76
2022/07/08 01:28:14;;;;;;;;;3.67;3.00;;;;;17.88;88.81;102838.19;5069949;28;45378;-75
2022/07/08 01:30:40;;;;;;;;;5.00;2.00;;;;;17.86;88.92;102847.06;5068240;28;45502;-76
2022/07/08 01:33:06;;;;;;;;;1.00;1.00;;;;;17.84;88.72;102846.13;5068339;28;47602;-75
2022/07/08 01:35:31;;;;;;;;;7.00;2.67;;;;;17.84;88.54;102851.47;5063612;28;63975;-75
2022/07/08 01:37:56;;;;;;;;;3.67;2.00;;;;;17.80;88.38;102851.47;5066547;28;45220;-76
2022/07/08 01:40:22;;;;;;;;;3.00;2.00;;;;;17.80;88.40;102850.56;5067264;28;45553;-75
2022/07/08 01:42:47;;;;;;;;;2.00;2.00;;;;;17.79;88.28;102865.72;5064150;28;68604;-76
2022/07/08 01:45:14;;;;;;;;;3.00;2.00;;;;;17.77;88.31;102853.19;5066762;28;64043;-75
2022/07/08 01:47:39;;;;;;;;;2.33;2.33;;;;;17.73;88.28;102854.00;5066588;28;45492;-76
2022/07/08 01:50:05;;;;;;;;;8.00;3.00;;;;;17.72;88.15;102850.44;5065613;28;63183;-76
2022/07/08 01:52:31;;;;;;;;;8.33;2.33;;;;;17.70;88.40;102854.84;5060249;28;47343;-76
2022/07/08 01:54:56;;;;;;;;;2.67;1.33;;;;;17.69;88.39;102847.72;5068691;28;58392;-75
2022/07/08 01:57:21;;;;;;;;;3.00;2.00;;;;;17.68;88.43;102848.56;5058162;28;62347;-75
2022/07/08 01:59:48;;;;;;;;;4.00;3.00;;;;;17.65;88.58;102843.19;5045124;28;45539;-75
2022/07/08 02:02:15;;;;;;;;;2.00;1.67;;;;;17.61;88.53;102841.34;5048999;28;46409;-75
2022/07/08 02:04:41;;;;;;;;;4.00;2.00;;;;;17.58;88.86;102838.66;5057417;28;45239;-75
2022/07/08 02:07:06;;;;;;;;;3.67;2.00;;;;;17.56;88.87;102835.03;5057653;28;45301;-76
2022/07/08 02:09:32;;;;;;;;;4.33;2.67;;;;;17.56;89.20;102853.75;5057287;28;45431;-75
2022/07/08 02:14:42;;;;;;;;;4.00;2.00;;;;;17.50;89.42;102848.31;5053207;28;45462;-75
2022/07/08 02:17:08;;;;;;;;;4.33;2.33;;;;;17.46;89.60;102846.47;5047001;28;45522;-75
2022/07/08 02:19:34;;;;;;;;;3.00;2.00;;;;;17.43;90.06;102852.69;5057689;28;45510;-75
2022/07/08 02:21:59;;;;;;;;;5.00;2.33;;;;;17.46;90.39;102854.47;5045149;28;46977;-75
2022/07/08 02:24:25;;;;;;;;;5.00;2.00;;;;;17.43;90.27;102846.44;5046191;28;54619;-76
2022/07/08 02:26:51;;;;;;;;;3.00;3.00;;;;;17.42;90.63;102847.31;5053806;28;45363;-75
2022/07/08 02:29:16;;;;;;;;;3.00;2.00;;;;;17.40;90.77;102846.38;5053903;28;45477;-76
2022/07/08 02:31:42;;;;;;;;;4.00;4.00;;;;;17.38;91.20;102838.34;5047276;28;72188;-76
2022/07/08 02:34:07;;;;;;;;;6.67;3.00;;;;;17.38;91.34;102846.38;5048053;28;45458;-75
2022/07/08 02:36:32;;;;;;;;;6.33;3.67;;;;;17.37;91.48;102843.69;5055076;28;45372;-76
2022/07/08 02:38:58;;;;;;;;;5.00;2.00;;;;;17.32;91.80;102842.72;5055450;28;62005;-75
2022/07/08 02:41:23;;;;;;;;;2.67;2.33;;;;;17.29;91.71;102836.44;5049463;28;65656;-76
2022/07/08 02:43:48;;;;;;;;;3.00;2.00;;;;;17.28;91.93;102837.31;5053547;28;61876;-76
2022/07/08 02:46:14;;;;;;;;;4.00;2.00;;;;;17.26;92.12;102843.53;5056725;28;45616;-75
2022/07/08 02:48:39;;;;;;;;;4.00;2.00;;;;;17.23;92.13;102839.00;5057003;28;45309;-75
2022/07/08 02:51:05;;;;;;;;;5.00;2.00;;;;;17.21;92.56;102840.78;5042589;28;64901;-76
2022/07/08 02:53:30;;;;;;;;;3.00;2.00;;;;;17.17;92.92;102838.03;5050462;28;61445;-76
2022/07/08 02:55:55;;;;;;;;;3.00;3.00;;;;;17.15;92.94;102834.41;5058657;28;62061;-76
2022/07/08 02:58:21;;;;;;;;;2.33;2.00;;;;;17.10;93.08;102834.38;5066921;28;52775;-75
2022/07/08 03:00:46;;;;;;;;;4.67;3.00;;;;;17.09;93.50;102839.66;5064744;28;46693;-75
2022/07/08 03:03:12;;;;;;;;;5.33;3.00;;;;;17.06;93.80;102851.19;5066355;28;62634;-75
2022/07/08 03:05:37;;;;;;;;;3.67;1.00;;;;;17.02;93.82;102850.25;5066672;28;45594;-76
2022/07/08 03:08:03;;;;;;;;;2.00;2.00;;;;;16.98;94.00;102843.06;5069303;28;60771;-75
2022/07/08 03:10:28;;;;;;;;;4.33;2.67;;;;;16.94;94.21;102846.56;5063652;28;46389;-76
2022/07/08 03:12:53;;;;;;;;;4.00;2.33;;;;;16.94;94.23;102853.69;5061322;28;64429;-75
2022/07/08 03:15:19;;;;;;;;;3.33;2.00;;;;;16.90;94.77;102862.50;5068096;28;45619;-75
2022/07/08 03:17:44;;;;;;;;;5.67;3.00;;;;;16.86;94.48;102845.53;5065758;28;56989;-76
2022/07/08 03:20:10;;;;;;;;;4.00;2.00;;;;;16.83;95.00;102850.81;5066571;28;51669;-75
2022/07/08 03:22:35;;;;;;;;;3.67;2.00;;;;;16.82;95.68;102849.00;5065750;28;45490;-76
2022/07/08 03:25:01;;;;;;;;;7.00;4.33;;;;;16.81;95.57;102859.66;5071683;28;45625;-75
2022/07/08 03:27:26;;;;;;;;;3.33;2.00;;;;;16.75;95.84;102863.13;5061928;28;45477;-75
2022/07/08 03:29:52;;;;;;;;;7.67;3.33;;;;;16.73;96.19;102870.19;5067076;28;65629;-75
2022/07/08 03:32:17;;;;;;;;;3.00;3.00;;;;;16.70;96.39;102868.31;5062370;28;65937;-75
2022/07/08 03:34:42;;;;;;;;;3.33;2.67;;;;;16.66;96.77;102871.81;5062627;28;60155;-75
2022/07/08 03:37:08;;;;;;;;;3.00;2.00;;;;;16.64;97.00;102873.56;5064959;28;57428;-75
2022/07/08 03:39:33;;;;;;;;;3.00;2.00;;;;;16.61;96.98;102870.81;5064477;28;47302;-76
2022/07/08 03:41:58;;;;;;;;;3.00;2.00;;;;;16.60;97.28;102879.69;5063006;28;65821;-75
2022/07/08 03:44:24;;;;;;;;;4.00;2.67;;;;;16.56;97.46;102877.81;5065677;28;57449;-75
2022/07/08 03:46:49;;;;;;;;;9.33;3.00;;;;;16.56;97.82;102883.16;5067166;28;60178;-75
2022/07/08 03:49:14;;;;;;;;;2.33;2.00;;;;;16.52;97.95;102872.44;5067003;28;55606;-75
2022/07/08 03:51:40;;;;;;;;;3.00;2.00;;;;;16.50;98.09;102875.03;5063390;28;64106;-75
2022/07/08 03:54:05;;;;;;;;;4.00;2.00;;;;;16.49;98.42;102876.81;5064092;28;56236;-75
2022/07/08 03:56:30;;;;;;;;;5.00;2.00;;;;;16.44;98.44;102877.59;5066094;28;59176;-75
2022/07/08 03:58:56;;;;;;;;;5.33;2.00;;;;;16.43;98.64;102876.72;5056610;28;60037;-75
2022/07/08 04:01:21;;;;;;;;;5.00;3.00;;;;;16.41;98.98;102885.56;5065204;28;67290;-76
2022/07/08 04:03:46;;;;;;;;;2.00;2.00;;;;;16.38;99.14;102882.81;5065961;28;63166;-75
2022/07/08 04:06:12;;;;;;;;;6.00;3.00;;;;;16.36;99.36;102880.13;5064419;28;45449;-75
2022/07/08 04:08:37;;;;;;;;;5.00;2.00;;;;;16.35;99.44;102885.41;5064364;28;46369;-75
2022/07/08 04:11:02;;;;;;;;;3.67;3.00;;;;;16.33;99.68;102884.50;5067093;28;45544;-75
2022/07/08 04:13:28;;;;;;;;;3.33;3.00;;;;;16.35;99.80;102889.00;5062887;28;45855;-75
2022/07/08 04:15:55;;;;;;;;;4.33;3.00;;;;;16.34;100.00;102883.63;5065020;28;45307;-75
2022/07/08 04:18:20;;;;;;;;;6.00;2.67;;;;;16.33;100.00;102882.72;5064471;28;47496;-75
2022/07/08 04:20:45;;;;;;;;;3.67;2.33;;;;;16.34;100.00;102878.28;5063786;28;50778;-75
2022/07/08 04:23:11;;;;;;;;;7.67;3.00;;;;;16.34;100.00;102880.94;5063628;28;45293;-75
2022/07/08 04:25:36;;;;;;;;;5.33;3.00;;;;;16.33;100.00;102880.06;5063559;28;62433;-75
2022/07/08 04:28:02;;;;;;;;;6.67;4.00;;;;;16.31;100.00;102878.25;5064293;28;66779;-75
2022/07/08 04:30:27;;;;;;;;;4.00;3.00;;;;;16.30;100.00;102879.09;5062654;28;45447;-75
2022/07/08 04:32:53;;;;;;;;;3.00;2.67;;;;;16.30;100.00;102881.75;5064245;28;45316;-75
2022/07/08 04:35:18;;;;;;;;;3.00;3.00;;;;;16.30;100.00;102884.41;5064413;28;56001;-75
2022/07/08 04:37:43;;;;;;;;;8.33;3.00;;;;;16.29;100.00;102887.97;5063657;28;46649;-76
2022/07/08 04:40:09;;;;;;;;;6.00;3.00;;;;;16.28;100.00;102891.50;5062812;28;67654;-76
2022/07/08 04:42:36;;;;;;;;;3.33;3.00;;;;;16.28;100.00;102894.16;5062739;28;45554;-74
2022/07/08 04:45:02;;;;;;;;;4.67;3.33;;;;;16.29;100.00;102902.19;5055669;28;45573;-77
2022/07/08 04:47:27;;;;;;;;;4.67;2.67;;;;;16.30;100.00;102900.41;5065943;28;47462;-74
2022/07/08 04:49:53;;;;;;;;;8.00;4.00;;;;;16.33;100.00;102904.06;5068108;28;45314;-74
2022/07/08 04:52:18;;;;;;;;;4.33;3.00;;;;;16.34;100.00;102908.50;5058107;28;63005;-74
2022/07/08 04:54:43;;;;;;;;;4.00;3.00;;;;;16.34;100.00;102905.84;5057786;28;45348;-74
2022/07/08 04:57:09;;;;;;;;;8.33;4.33;;;;;16.36;100.00;102908.56;5163292;22;45559;-73
2022/07/08 04:59:34;;;;;;;;;3.00;3.00;;;;;16.36;100.00;102911.22;5061705;28;45292;-75
2022/07/08 05:02:00;;;;;;;;;4.00;3.00;;;;;16.37;100.00;102905.03;5057508;28;47146;-74
2022/07/08 05:04:25;;;;;;;;;3.00;3.00;;;;;16.37;100.00;102916.59;5058242;28;51693;-73
2022/07/08 05:06:50;;;;;;;;;3.00;3.00;;;;;16.38;100.00;102915.72;5056845;28;58894;-74
2022/07/08 05:09:16;;;;;;;;;5.00;3.00;;;;;16.39;100.00;102914.84;5056870;28;66026;-74
2022/07/08 05:11:41;;;;;;;;;8.00;3.67;;;;;16.40;100.00;102907.72;5058501;28;46377;-74
2022/07/08 05:14:07;;;;;;;;;7.33;3.67;;;;;16.43;100.00;102919.38;5056746;28;61367;-74
2022/07/08 05:16:33;;;;;;;;;4.00;4.00;;;;;16.45;100.00;102922.06;5056532;28;46251;-73
2022/07/08 05:18:58;;;;;;;;;6.00;4.00;;;;;16.45;100.00;102930.06;5062484;28;61177;-73
2022/07/08 05:21:24;;;;;;;;;4.33;3.00;;;;;16.49;100.00;102932.81;5056994;28;45155;-75
2022/07/08 05:23:49;;;;;;;;;6.33;3.00;;;;;16.52;100.00;102928.44;5052853;28;45513;-74
2022/07/08 05:26:15;;;;;;;;;2.00;2.00;;;;;16.51;100.00;102927.50;5060742;28;46432;-73
2022/07/08 05:28:40;;;;;;;;;3.00;3.00;;;;;16.53;100.00;102930.22;5052909;28;45327;-75
2022/07/08 05:31:05;;;;;;;;;8.00;4.33;;;;;16.55;100.00;102926.72;5042510;28;64760;-74
2022/07/08 05:33:31;;;;;;;;;4.33;3.00;;;;;16.56;100.00;102923.16;5036627;28;45544;-74
2022/07/08 05:35:56;;;;;;;;;4.67;3.00;;;;;16.59;100.00;102914.34;5053609;28;46331;-74
2022/07/08 05:38:21;;;;;;;;;5.67;4.33;;;;;16.64;100.00;102924.22;5062658;28;50287;-73
2022/07/08 05:40:47;;;;;;;;;7.00;4.00;;;;;16.68;100.00;102925.19;5055292;28;51221;-75
2022/07/08 05:43:12;;;;;;;;;8.33;6.00;;;;;16.70;100.00;102931.44;5056711;28;45605;-74
2022/07/08 05:45:37;;;;;;;;;4.00;4.00;;;;;16.72;100.00;102925.31;5055006;28;67135;-75
2022/07/08 05:48:03;;;;;;;;;6.00;3.00;;;;;16.76;100.00;102921.81;5052591;28;45297;-74
2022/07/08 05:50:28;;;;;;;;;6.67;4.00;;;;;16.79;100.00;102930.78;5052623;28;45495;-75
2022/07/08 05:52:53;;;;;;;;;6.67;5.00;;;;;16.82;100.00;102922.81;5063471;28;61459;-76
2022/07/08 05:55:19;;;;;;;;;6.00;3.33;;;;;16.83;100.00;102927.28;5057387;28;62619;-76
2022/07/08 05:57:44;;;;;;;;;6.67;3.67;;;;;16.86;100.00;102930.00;5051827;28;67562;-74
2022/07/08 06:00:10;;;;;;;;;7.33;5.00;;;;;16.86;100.00;102927.34;5056572;28;59268;-77
2022/07/08 06:02:37;;;;;;;;;8.00;4.00;;;;;16.89;100.00;102933.66;5057879;28;45455;-75
2022/07/08 06:05:02;;;;;;;;;10.00;4.00;;;;;16.92;100.00;102924.78;5056901;28;46477;-76
2022/07/08 06:07:28;;;;;;;;;9.67;5.33;;;;;16.99;100.00;102924.94;5055944;28;45530;-74
2022/07/08 06:09:53;;;;;;;;;6.67;5.00;;;;;17.05;100.00;102933.94;5063360;28;45455;-74
2022/07/08 06:12:18;;;;;;;;;3.33;3.33;;;;;17.10;100.00;102927.78;5056938;28;45486;-74
2022/07/08 06:14:44;;;;;;;;;7.67;6.33;;;;;17.19;100.00;102933.28;5055162;28;46307;-75
2022/07/08 06:17:09;;;;;;;;;11.00;4.67;;;;;17.23;100.00;102929.78;5056932;28;45182;-74
2022/07/08 06:19:35;;;;;;;;;8.00;5.00;;;;;17.29;100.00;102926.31;5055342;28;63563;-76
2022/07/08 06:22:00;;;;;;;;;4.00;3.00;;;;;17.37;100.00;102931.81;5056947;28;45509;-77
2022/07/08 06:24:25;;;;;;;;;5.67;4.00;;;;;17.41;100.00;102936.31;5053722;28;64455;-75
2022/07/08 06:26:52;;;;;;;;;6.00;3.00;;;;;17.45;99.86;102933.72;5053755;28;45426;-74
2022/07/08 06:29:17;;;;;;;;;4.67;3.33;;;;;17.52;99.46;102937.38;5056903;28;45459;-75
2022/07/08 06:31:43;;;;;;;;;5.67;2.33;;;;;17.59;99.09;102949.97;5056916;28;45477;-74
2022/07/08 06:34:08;;;;;;;;;5.67;3.00;;;;;17.65;98.99;102941.16;5055451;28;63916;-73
2022/07/08 06:36:34;;;;;;;;;7.00;4.33;;;;;17.69;98.75;102946.56;5040896;28;66542;-74
2022/07/08 06:38:59;;;;;;;;;10.00;4.00;;;;;17.76;98.53;102955.59;5045034;28;61587;-75
2022/07/08 06:41:25;;;;;;;;;3.33;3.00;;;;;17.82;97.77;102954.81;5055000;28;62330;-74
2022/07/08 06:43:50;;;;;;;;;7.67;5.00;;;;;17.84;97.41;102959.28;5049953;28;56321;-76
2022/07/08 06:46:16;;;;;;;;;7.00;4.00;;;;;17.87;97.43;102948.66;5056330;28;45408;-76
2022/07/08 06:48:42;;;;;;;;;6.00;4.00;;;;;17.91;96.78;102949.59;5055617;28;45501;-74
2022/07/08 06:51:07;;;;;;;;;10.33;3.00;;;;;17.94;96.48;102945.19;5056195;28;45547;-74
2022/07/08 06:56:16;;;;;;;;;7.00;3.00;;;;;18.02;95.56;102943.53;5056004;28;45556;-74
2022/07/08 06:58:42;;;;;;;;;6.00;4.00;;;;;18.05;95.11;102945.31;5055400;28;59288;-74
2022/07/08 07:01:07;;;;;;;;;9.00;5.67;;;;;18.09;95.24;102946.28;5056203;28;46340;-74
2022/07/08 07:03:32;;;;;;;;;8.33;3.00;;;;;18.13;94.40;102943.66;5056097;28;47510;-78
2022/07/08 07:05:58;;;;;;;;;6.67;3.33;;;;;18.16;94.19;102941.03;5055898;28;66021;-76
2022/07/08 07:08:24;;;;;;;;;7.33;3.00;;;;;18.21;93.52;102951.78;5055238;28;56868;-73
2022/07/08 07:10:49;;;;;;;;;4.33;3.00;;;;;18.22;93.18;102951.81;5056248;28;45278;-75
2022/07/08 07:13:14;;;;;;;;;7.33;2.67;;;;;18.25;92.29;102945.59;5055143;28;62302;-74
2022/07/08 07:15:39;;;;;;;;;2.00;2.00;;;;;18.28;92.56;102943.88;5054995;28;62041;-73
2022/07/08 07:18:06;;;;;;;;;4.67;3.00;;;;;18.29;92.09;102943.00;5054337;28;61799;-74
2022/07/08 07:20:31;;;;;;;;;4.00;2.33;;;;;18.36;92.30;102949.31;5055805;28;45277;-76
2022/07/08 07:22:56;;;;;;;;;4.67;3.33;;;;;18.40;91.69;102943.13;5054758;28;69550;-74
2022/07/08 07:25:21;;;;;;;;;8.00;2.00;;;;;18.44;91.35;102950.31;5056131;28;65810;-74
2022/07/08 07:27:47;;;;;;;;;6.33;3.00;;;;;18.49;91.57;102945.03;5055223;28;55580;-74
2022/07/08 07:30:13;;;;;;;;;6.00;4.00;;;;;18.55;91.65;102945.09;5055852;28;45485;-76
2022/07/08 07:32:38;;;;;;;;;7.33;4.00;;;;;18.59;91.21;102944.25;5054157;28;45783;-74
2022/07/08 07:35:04;;;;;;;;;6.33;3.00;;;;;18.64;91.21;102946.97;5055968;28;45512;-74
2022/07/08 07:37:34;;;;;;;;;5.33;3.00;;;;;18.69;90.02;102953.28;5036856;28;46140;-75
2022/07/08 07:39:59;;;;;;;;;2.33;2.33;;;;;18.70;90.22;102950.66;5056310;28;45216;-75
2022/07/08 07:42:25;;;;;;;;;6.00;4.33;;;;;18.74;90.21;102949.78;5035182;28;71292;-74
2022/07/08 07:44:50;;;;;;;;;4.00;3.00;;;;;18.79;90.19;102952.53;5055062;28;69309;-74
2022/07/08 07:47:16;;;;;;;;;5.00;3.00;;;;;18.83;89.87;102951.69;5055242;28;45262;-74
2022/07/08 07:49:41;;;;;;;;;6.33;3.33;;;;;18.86;90.05;102945.47;5055832;28;45351;-74
2022/07/08 07:52:06;;;;;;;;;6.00;3.00;;;;;18.91;90.06;102943.72;5055573;28;57504;-73
2022/07/08 07:54:32;;;;;;;;;5.67;2.67;;;;;18.94;90.04;102938.41;5054619;28;61662;-75
2022/07/08 07:56:57;;;;;;;;;6.00;2.33;;;;;19.01;89.54;102945.59;5054430;28;45522;-74
2022/07/08 07:59:22;;;;;;;;;8.00;5.00;;;;;19.05;89.75;102942.09;5054349;28;45525;-75
2022/07/08 08:01:48;;;;;;;;;8.33;4.00;;;;;19.11;89.96;102947.50;5054782;28;65053;-74
2022/07/08 08:04:13;;;;;;;;;4.67;2.00;;;;;19.17;89.46;102952.00;5053127;28;63763;-74
2022/07/08 08:06:38;;;;;;;;;3.67;3.67;;;;;19.20;88.35;102938.66;5055319;28;46184;-75
2022/07/08 08:09:04;;;;;;;;;7.33;5.00;;;;;19.22;88.21;102940.44;5055219;28;55661;-74
2022/07/08 08:11:29;;;;;;;;;5.00;4.33;;;;;19.26;88.39;102939.59;5054901;28;45584;-75
2022/07/08 08:13:54;;;;;;;;;3.33;3.33;;;;;19.30;88.53;102948.56;5055308;28;45462;-74
2022/07/08 08:16:20;;;;;;;;;2.67;2.67;;;;;19.36;87.45;102941.47;5054390;28;52351;-74
2022/07/08 08:18:45;;;;;;;;;6.33;4.00;;;;;19.41;87.97;102946.88;5055066;28;58789;-75
2022/07/08 08:21:10;;;;;;;;;7.67;4.67;;;;;19.45;87.66;102945.13;5051653;28;66043;-74
2022/07/08 08:23:36;;;;;;;;;7.33;4.67;;;;;19.50;86.93;102952.31;5058050;28;46213;-73
2022/07/08 08:26:01;;;;;;;;;9.00;4.33;;;;;19.55;87.07;102945.22;5054650;28;45628;-74
2022/07/08 08:28:26;;;;;;;;;8.00;5.67;;;;;19.57;85.60;102943.44;5046359;28;56884;-73
2022/07/08 08:30:52;;;;;;;;;10.00;4.33;;;;;19.60;86.56;102945.25;5046604;28;67109;-74
2022/07/08 08:33:17;;;;;;;;;12.00;5.00;;;;;19.64;86.02;102941.72;5045172;28;45268;-73
2022/07/08 08:35:42;;;;;;;;;8.33;7.00;;;;;19.67;85.45;102936.38;5056185;28;61337;-74
2022/07/08 08:38:08;;;;;;;;;6.00;5.00;;;;;19.71;85.55;102943.56;5058884;28;45384;-74
2022/07/08 08:40:33;;;;;;;;;8.33;6.00;;;;;19.77;85.00;102934.69;5057886;28;62598;-75
2022/07/08 08:42:59;;;;;;;;;8.33;5.67;;;;;19.80;84.14;102930.22;5057817;28;55872;-74
2022/07/08 08:45:26;;;;;;;;;5.67;5.00;;;;;19.82;84.15;102922.19;5057317;28;66318;-74
2022/07/08 08:47:52;;;;;;;;;7.00;6.00;;;;;19.83;83.63;102922.19;5050891;28;45605;-74
2022/07/08 08:53:03;;;;;;;;;6.67;6.67;;;;;19.90;83.56;102923.13;5029143;28;45489;-74
2022/07/08 08:55:30;;;;;;;;;11.67;5.67;;;;;19.96;83.34;102920.47;5049283;28;45867;-73
2022/07/08 08:58:05;;;;;;;;;14.00;9.33;;;;;20.01;83.17;102912.44;5052655;28;45677;-74
2022/07/08 09:00:32;;;;;;;;;8.33;7.33;;;;;20.05;82.82;102908.91;5056648;28;45823;-73
2022/07/08 09:02:59;;;;;;;;;8.67;7.00;;;;;20.09;83.25;102906.25;5050691;28;46176;-73
2022/07/08 09:05:25;;;;;;;;;9.67;6.00;;;;;20.14;82.94;102906.28;5057405;28;45388;-75
2022/07/08 09:07:50;;;;;;;;;8.67;7.33;;;;;20.19;82.51;102896.47;5057940;28;45518;-74
2022/07/08 09:10:17;;;;;;;;;11.33;7.00;;;;;20.25;82.08;102891.13;5055603;28;47411;-74
2022/07/08 09:13:01;;;;;;;;;9.00;8.00;;;;;20.30;81.69;102889.34;5057688;28;45443;-74
2022/07/08 09:15:33;;;;;;;;;8.33;7.00;;;;;20.36;80.14;102888.47;5057197;28;45514;-73
2022/07/08 09:18:00;;;;;;;;;9.00;6.67;;;;;20.38;80.33;102900.09;5041358;28;45580;-74
2022/07/08 09:20:26;;;;;;;;;6.67;6.00;;;;;20.40;80.46;102899.22;5049581;28;46607;-74
2022/07/08 09:22:51;;;;;;;;;6.00;6.00;;;;;20.45;79.97;102890.25;5055509;28;45158;-75
2022/07/08 09:25:16;;;;;;;;;6.67;6.67;;;;;20.47;79.73;102893.91;5055172;28;62288;-73
2022/07/08 09:27:42;;;;;;;;;9.33;5.00;;;;;20.53;78.04;102885.88;5057154;28;48336;-73
2022/07/08 09:30:08;;;;;;;;;8.00;6.00;;;;;20.57;78.60;102883.19;5056811;28;65792;-74
2022/07/08 09:32:33;;;;;;;;;5.33;5.33;;;;;20.61;77.55;102881.38;5056045;28;45235;-76
2022/07/08 09:34:58;;;;;;;;;7.33;7.00;;;;;20.64;78.21;102879.63;5031810;28;45417;-76
2022/07/08 09:37:24;;;;;;;;;8.67;5.67;;;;;20.75;78.47;102884.13;5054776;28;45475;-76
2022/07/08 09:39:49;;;;;;;;;6.00;6.00;;;;;20.80;77.13;102877.84;5057204;28;47862;-75
2022/07/08 09:42:15;;;;;;;;;5.00;5.00;;;;;20.84;77.47;102876.09;5054572;28;45390;-74
2022/07/08 09:44:41;;;;;;;;;6.00;4.67;;;;;20.92;75.39;102877.84;5045378;28;45578;-74
2022/07/08 09:47:15;;;;;;;;;7.00;6.00;;;;;20.96;75.81;102872.50;5056657;28;45284;-75
2022/07/08 09:49:46;;;;;;;;;11.33;6.00;;;;;21.03;76.24;102879.66;5054294;28;46597;-74
2022/07/08 09:52:19;;;;;;;;;5.00;5.00;;;;;21.09;75.44;102868.91;5056854;28;45496;-74
2022/07/08 09:54:45;;;;;;;;;5.67;5.00;;;;;21.17;75.23;102878.75;5037364;28;45415;-76
2022/07/08 09:57:11;;;;;;;;;7.00;7.00;;;;;21.24;74.74;102882.34;5054916;28;54993;-75
2022/07/08 09:59:37;;;;;;;;;7.33;5.00;;;;;21.30;73.05;102881.47;5054267;28;47479;-75
2022/07/08 10:02:04;;;;;;;;;7.67;5.67;;;;;21.33;73.54;102874.31;5029948;28;45823;-75
2022/07/08 10:04:29;;;;;;;;;7.00;7.00;;;;;21.41;73.59;102871.59;5029426;28;45360;-74
2022/07/08 10:06:56;;;;;;;;;6.00;6.00;;;;;21.47;73.53;102877.00;5054919;28;45413;-74
2022/07/08 10:09:23;;;;;;;;;7.00;5.00;;;;;21.51;73.60;102878.75;5050506;28;47065;-74
2022/07/08 10:11:49;;;;;;;;;6.00;4.00;;;;;21.56;74.12;102870.69;5040012;28;45560;-74
2022/07/08 10:14:15;;;;;;;;;2.00;2.00;;;;;21.65;71.25;102874.25;5039744;28;45286;-73
2022/07/08 10:16:41;;;;;;;;;6.00;5.33;;;;;21.74;71.30;102875.13;5042712;28;45556;-77
2022/07/08 10:19:15;;;;;;;;;4.33;4.00;;;;;21.81;70.33;102861.66;5041421;28;46665;-75
2022/07/08 10:21:42;;;;;;;;;5.00;5.00;;;;;21.89;70.23;102867.91;5028463;28;45532;-76
2022/07/08 10:24:10;;;;;;;;;6.00;4.00;;;;;21.91;70.07;102855.34;5040660;28;45523;-73
2022/07/08 10:26:38;;;;;;;;;5.00;5.00;;;;;21.96;70.92;102858.91;5036605;28;45440;-75
2022/07/08 10:29:05;;;;;;;;;7.33;5.33;;;;;22.03;71.01;102859.78;5039322;28;45851;-75
2022/07/08 10:31:43;;;;;;;;;5.33;4.00;;;;;22.08;71.39;102860.66;5042282;28;45518;-82
2022/07/08 10:34:11;;;;;;;;;4.00;4.00;;;;;22.17;69.90;102871.41;5046863;28;45353;-75
2022/07/08 10:36:47;;;;;;;;;4.67;4.00;;;;;22.26;68.08;102867.75;5046355;28;45470;-74
2022/07/08 10:39:13;;;;;;;;;4.33;4.00;;;;;22.30;68.45;102864.16;5039725;28;45836;-72
2022/07/08 10:41:39;;;;;;;;;3.67;3.67;;;;;22.33;68.14;102863.28;5042169;28;45554;-72
2022/07/08 10:44:05;;;;;;;;;3.33;3.33;;;;;22.34;67.11;102862.34;5026319;28;45666;-73
2022/07/08 10:46:30;;;;;;;;;3.33;2.00;;;;;22.38;66.85;102856.97;5053471;28;45550;-74
2022/07/08 10:48:57;;;;;;;;;2.33;2.33;;;;;22.44;65.55;102861.41;5033596;28;46589;-74
2022/07/08 10:51:24;;;;;;;;;3.00;3.00;;;;;22.53;65.32;102861.34;5046376;28;45574;-73
2022/07/08 10:53:57;;;;;;;;;5.00;3.67;;;;;22.61;66.94;102864.00;5052653;28;45551;-74
2022/07/08 10:56:48;;;;;;;;;2.00;2.00;;;;;22.68;62.92;102868.41;5033176;28;45462;-74
2022/07/08 10:59:35;;;;;;;;;4.00;4.00;;;;;22.77;62.36;102864.78;5050730;28;46774;-74
2022/07/08 11:02:11;;;;;;;;;5.00;3.00;;;;;22.85;63.50;102869.22;5051123;28;45418;-78
2022/07/08 11:11:21;;;;;;;;;3.67;3.00;;;;;23.06;62.63;102854.66;5041191;28;46336;-72
2022/07/08 11:13:54;;;;;;;;;6.00;2.33;;;;;23.14;62.43;102850.13;5046140;28;62424;-75
2022/07/08 11:16:20;;;;;;;;;2.00;2.00;;;;;23.19;62.55;102850.97;5034854;28;45525;-76
2022/07/08 11:18:45;;;;;;;;;2.33;1.67;;;;;23.27;62.11;102843.69;5050049;28;45490;-77
2022/07/08 11:21:11;;;;;;;;;4.33;2.33;;;;;23.35;60.48;102851.72;5042073;28;46505;-78
2022/07/08 11:23:36;;;;;;;;;3.00;3.00;;;;;23.39;60.73;102844.50;5052014;28;63239;-76
2022/07/08 11:26:02;;;;;;;;;2.33;2.33;;;;;23.43;60.14;102855.22;5052317;28;63007;-75
2022/07/08 11:28:27;;;;;;;;;2.00;2.00;;;;;23.49;60.41;102836.31;5049872;28;45643;-76
2022/07/08 11:30:53;;;;;;;;;4.00;3.00;;;;;23.56;60.15;102838.94;5054125;28;46436;-74
2022/07/08 11:33:18;;;;;;;;;4.00;1.00;;;;;23.64;58.99;102834.34;5062206;28;45386;-73